sensor_id;sensor_type;location;lat;lon;timestamp;P1;durP1;ratioP1;P2;durP2;ratioP2
20229;SDS011;12195;55.790;37.572;2023-09-12T00:02:32;19.87;;;13.13;;
20229;SDS011;12195;55.790;37.572;2023-09-12T00:05:05;21.57;;;13.60;;
20229;SDS011;12195;55.790;37.572;2023-09-12T00:07:38;20.08;;;12.80;;
20229;SDS011;12195;55.790;37.572;2023-09-12T00:10:11;21.50;;;12.95;;
20229;SDS011;12195;55.790;37.572;2023-09-12T00:12:44;23.27;;;13.18;;
20229;SDS011;12195;55.790;37.572;2023-09-12T00:15:17;25.10;;;14.55;;
20229;SDS011;12195;55.790;37.572;2023-09-12T00:17:50;21.35;;;13.43;;
20229;SDS011;12195;55.790;37.572;2023-09-12T00:20:22;21.73;;;13.45;;
20229;SDS011;12195;55.790;37.572;2023-09-12T00:22:55;25.23;;;13.08;;
20229;SDS011;12195;55.790;37.572;2023-09-12T00:25:27;19.85;;;13.30;;
20229;SDS011;12195;55.790;37.572;2023-09-12T00:27:59;23.70;;;14.15;;
20229;SDS011;12195;55.790;37.572;2023-09-12T00:30:32;23.60;;;12.75;;
20229;SDS011;12195;55.790;37.572;2023-09-12T00:33:04;20.23;;;13.53;;
20229;SDS011;12195;55.790;37.572;2023-09-12T00:35:36;23.25;;;14.18;;
20229;SDS011;12195;55.790;37.572;2023-09-12T00:38:11;30.08;;;14.20;;
20229;SDS011;12195;55.790;37.572;2023-09-12T00:40:43;19.85;;;14.13;;
20229;SDS011;12195;55.790;37.572;2023-09-12T00:43:16;22.48;;;13.75;;
20229;SDS011;12195;55.790;37.572;2023-09-12T00:45:49;23.80;;;14.07;;
20229;SDS011;12195;55.790;37.572;2023-09-12T00:48:21;22.13;;;14.33;;
20229;SDS011;12195;55.790;37.572;2023-09-12T00:50:55;24.52;;;14.18;;
20229;SDS011;12195;55.790;37.572;2023-09-12T00:53:28;20.57;;;13.72;;
20229;SDS011;12195;55.790;37.572;2023-09-12T00:56:00;21.85;;;13.90;;
20229;SDS011;12195;55.790;37.572;2023-09-12T00:58:33;20.50;;;13.10;;
20229;SDS011;12195;55.790;37.572;2023-09-12T01:01:06;21.02;;;13.22;;
20229;SDS011;12195;55.790;37.572;2023-09-12T01:03:39;19.90;;;12.75;;
20229;SDS011;12195;55.790;37.572;2023-09-12T01:06:11;22.27;;;13.58;;
20229;SDS011;12195;55.790;37.572;2023-09-12T01:08:46;22.67;;;14.18;;
20229;SDS011;12195;55.790;37.572;2023-09-12T01:11:18;25.27;;;14.18;;
20229;SDS011;12195;55.790;37.572;2023-09-12T01:13:52;25.85;;;14.78;;
20229;SDS011;12195;55.790;37.572;2023-09-12T01:16:24;24.70;;;14.35;;
20229;SDS011;12195;55.790;37.572;2023-09-12T01:18:56;25.25;;;14.10;;
20229;SDS011;12195;55.790;37.572;2023-09-12T01:21:50;24.35;;;14.00;;
20229;SDS011;12195;55.790;37.572;2023-09-12T01:27:25;23.23;;;14.87;;
20229;SDS011;12195;55.790;37.572;2023-09-12T01:30:04;25.17;;;14.95;;
20229;SDS011;12195;55.790;37.572;2023-09-12T01:32:34;23.95;;;13.95;;
20229;SDS011;12195;55.790;37.572;2023-09-12T01:35:08;31.12;;;15.13;;
20229;SDS011;12195;55.790;37.572;2023-09-12T01:37:41;23.80;;;14.38;;
20229;SDS011;12195;55.790;37.572;2023-09-12T01:40:13;26.02;;;14.45;;
20229;SDS011;12195;55.790;37.572;2023-09-12T01:42:47;27.50;;;15.03;;
20229;SDS011;12195;55.790;37.572;2023-09-12T01:45:21;24.52;;;14.10;;
20229;SDS011;12195;55.790;37.572;2023-09-12T01:47:54;32.80;;;15.25;;
20229;SDS011;12195;55.790;37.572;2023-09-12T01:50:27;27.98;;;15.78;;
20229;SDS011;12195;55.790;37.572;2023-09-12T01:55:33;30.25;;;14.58;;
20229;SDS011;12195;55.790;37.572;2023-09-12T01:58:07;26.37;;;15.23;;
20229;SDS011;12195;55.790;37.572;2023-09-12T02:00:40;26.07;;;14.63;;
20229;SDS011;12195;55.790;37.572;2023-09-12T02:03:12;23.80;;;14.75;;
20229;SDS011;12195;55.790;37.572;2023-09-12T02:05:45;30.20;;;17.30;;
20229;SDS011;12195;55.790;37.572;2023-09-12T02:08:18;28.95;;;16.48;;
20229;SDS011;12195;55.790;37.572;2023-09-12T02:10:50;25.02;;;15.72;;
20229;SDS011;12195;55.790;37.572;2023-09-12T02:13:23;25.12;;;15.30;;
20229;SDS011;12195;55.790;37.572;2023-09-12T02:15:59;31.48;;;16.70;;
20229;SDS011;12195;55.790;37.572;2023-09-12T02:18:33;26.20;;;14.93;;
20229;SDS011;12195;55.790;37.572;2023-09-12T02:21:06;26.17;;;15.00;;
20229;SDS011;12195;55.790;37.572;2023-09-12T02:23:38;24.72;;;15.23;;
20229;SDS011;12195;55.790;37.572;2023-09-12T02:26:11;28.23;;;15.65;;
20229;SDS011;12195;55.790;37.572;2023-09-12T02:28:43;27.35;;;15.15;;
20229;SDS011;12195;55.790;37.572;2023-09-12T02:31:17;26.30;;;14.80;;
20229;SDS011;12195;55.790;37.572;2023-09-12T02:33:49;24.55;;;15.28;;
20229;SDS011;12195;55.790;37.572;2023-09-12T02:36:21;27.93;;;15.63;;
20229;SDS011;12195;55.790;37.572;2023-09-12T02:38:54;29.35;;;15.23;;
20229;SDS011;12195;55.790;37.572;2023-09-12T02:41:26;26.57;;;15.45;;
20229;SDS011;12195;55.790;37.572;2023-09-12T02:43:58;24.12;;;15.45;;
20229;SDS011;12195;55.790;37.572;2023-09-12T02:46:31;28.60;;;15.95;;
20229;SDS011;12195;55.790;37.572;2023-09-12T02:49:04;21.48;;;14.75;;
20229;SDS011;12195;55.790;37.572;2023-09-12T02:51:39;25.40;;;15.60;;
20229;SDS011;12195;55.790;37.572;2023-09-12T02:54:12;25.52;;;15.45;;
20229;SDS011;12195;55.790;37.572;2023-09-12T02:56:45;27.95;;;15.98;;
20229;SDS011;12195;55.790;37.572;2023-09-12T02:59:17;27.05;;;16.15;;
20229;SDS011;12195;55.790;37.572;2023-09-12T03:01:50;31.95;;;15.98;;
20229;SDS011;12195;55.790;37.572;2023-09-12T03:04:23;28.92;;;16.15;;
20229;SDS011;12195;55.790;37.572;2023-09-12T03:06:58;26.73;;;16.30;;
20229;SDS011;12195;55.790;37.572;2023-09-12T03:09:31;25.37;;;15.90;;
20229;SDS011;12195;55.790;37.572;2023-09-12T03:12:04;30.65;;;15.83;;
20229;SDS011;12195;55.790;37.572;2023-09-12T03:14:38;29.05;;;16.30;;
20229;SDS011;12195;55.790;37.572;2023-09-12T03:17:11;29.72;;;16.07;;
20229;SDS011;12195;55.790;37.572;2023-09-12T03:19:44;102.60;;;26.77;;
20229;SDS011;12195;55.790;37.572;2023-09-12T03:22:17;57.30;;;20.72;;
20229;SDS011;12195;55.790;37.572;2023-09-12T03:24:49;28.62;;;16.20;;
20229;SDS011;12195;55.790;37.572;2023-09-12T03:27:21;38.05;;;17.48;;
20229;SDS011;12195;55.790;37.572;2023-09-12T03:29:54;250.87;;;50.48;;
20229;SDS011;12195;55.790;37.572;2023-09-12T03:32:29;36.80;;;18.52;;
20229;SDS011;12195;55.790;37.572;2023-09-12T03:35:01;31.48;;;18.25;;
20229;SDS011;12195;55.790;37.572;2023-09-12T03:37:34;26.42;;;15.55;;
20229;SDS011;12195;55.790;37.572;2023-09-12T03:40:08;26.33;;;16.20;;
20229;SDS011;12195;55.790;37.572;2023-09-12T03:42:45;27.80;;;15.50;;
20229;SDS011;12195;55.790;37.572;2023-09-12T03:45:18;26.73;;;15.60;;
20229;SDS011;12195;55.790;37.572;2023-09-12T03:47:52;26.73;;;15.63;;
20229;SDS011;12195;55.790;37.572;2023-09-12T03:50:25;27.25;;;15.35;;
20229;SDS011;12195;55.790;37.572;2023-09-12T03:53:01;23.83;;;15.98;;
20229;SDS011;12195;55.790;37.572;2023-09-12T03:55:34;25.55;;;16.00;;
20229;SDS011;12195;55.790;37.572;2023-09-12T03:58:07;29.95;;;16.77;;
20229;SDS011;12195;55.790;37.572;2023-09-12T04:00:40;27.27;;;17.10;;
20229;SDS011;12195;55.790;37.572;2023-09-12T04:03:12;26.75;;;16.07;;
20229;SDS011;12195;55.790;37.572;2023-09-12T04:05:46;26.20;;;16.48;;
20229;SDS011;12195;55.790;37.572;2023-09-12T04:08:19;27.70;;;17.10;;
20229;SDS011;12195;55.790;37.572;2023-09-12T04:10:52;24.43;;;15.98;;
20229;SDS011;12195;55.790;37.572;2023-09-12T04:13:25;28.35;;;17.45;;
20229;SDS011;12195;55.790;37.572;2023-09-12T04:15:59;25.35;;;16.67;;
20229;SDS011;12195;55.790;37.572;2023-09-12T04:18:32;27.95;;;16.75;;
20229;SDS011;12195;55.790;37.572;2023-09-12T04:21:05;24.80;;;15.75;;
20229;SDS011;12195;55.790;37.572;2023-09-12T04:23:38;27.62;;;16.30;;
20229;SDS011;12195;55.790;37.572;2023-09-12T04:26:11;28.10;;;16.97;;
20229;SDS011;12195;55.790;37.572;2023-09-12T04:28:46;29.02;;;15.88;;
20229;SDS011;12195;55.790;37.572;2023-09-12T04:31:19;28.60;;;17.23;;
20229;SDS011;12195;55.790;37.572;2023-09-12T04:33:51;24.52;;;15.08;;
20229;SDS011;12195;55.790;37.572;2023-09-12T04:36:25;28.07;;;15.88;;
20229;SDS011;12195;55.790;37.572;2023-09-12T04:38:58;27.65;;;15.90;;
20229;SDS011;12195;55.790;37.572;2023-09-12T04:41:31;25.08;;;16.17;;
20229;SDS011;12195;55.790;37.572;2023-09-12T04:44:04;28.05;;;17.45;;
20229;SDS011;12195;55.790;37.572;2023-09-12T04:46:37;30.45;;;16.48;;
20229;SDS011;12195;55.790;37.572;2023-09-12T04:49:12;24.87;;;16.32;;
20229;SDS011;12195;55.790;37.572;2023-09-12T04:51:45;27.27;;;16.52;;
20229;SDS011;12195;55.790;37.572;2023-09-12T04:54:19;23.90;;;15.30;;
20229;SDS011;12195;55.790;37.572;2023-09-12T04:56:52;29.70;;;16.57;;
20229;SDS011;12195;55.790;37.572;2023-09-12T04:59:25;24.05;;;15.80;;
20229;SDS011;12195;55.790;37.572;2023-09-12T05:04:31;23.35;;;14.43;;
20229;SDS011;12195;55.790;37.572;2023-09-12T05:07:04;25.48;;;15.40;;
20229;SDS011;12195;55.790;37.572;2023-09-12T05:09:37;21.87;;;15.05;;
20229;SDS011;12195;55.790;37.572;2023-09-12T05:12:10;27.87;;;16.23;;
20229;SDS011;12195;55.790;37.572;2023-09-12T05:14:44;28.27;;;15.30;;
20229;SDS011;12195;55.790;37.572;2023-09-12T05:17:17;24.20;;;15.68;;
20229;SDS011;12195;55.790;37.572;2023-09-12T05:19:49;23.75;;;15.32;;
20229;SDS011;12195;55.790;37.572;2023-09-12T05:22:22;22.40;;;15.18;;
20229;SDS011;12195;55.790;37.572;2023-09-12T05:24:55;22.85;;;15.00;;
20229;SDS011;12195;55.790;37.572;2023-09-12T05:30:02;25.27;;;15.85;;
20229;SDS011;12195;55.790;37.572;2023-09-12T05:32:36;30.70;;;15.45;;
20229;SDS011;12195;55.790;37.572;2023-09-12T05:35:10;25.30;;;16.25;;
20229;SDS011;12195;55.790;37.572;2023-09-12T05:40:17;23.47;;;14.20;;
20229;SDS011;12195;55.790;37.572;2023-09-12T05:42:50;26.40;;;15.97;;
20229;SDS011;12195;55.790;37.572;2023-09-12T05:45:24;21.00;;;14.58;;
20229;SDS011;12195;55.790;37.572;2023-09-12T05:47:57;22.77;;;14.90;;
20229;SDS011;12195;55.790;37.572;2023-09-12T05:50:30;21.17;;;14.70;;
20229;SDS011;12195;55.790;37.572;2023-09-12T05:53:05;23.52;;;14.05;;
20229;SDS011;12195;55.790;37.572;2023-09-12T05:55:39;21.10;;;13.70;;
20229;SDS011;12195;55.790;37.572;2023-09-12T06:00:46;20.20;;;13.72;;
20229;SDS011;12195;55.790;37.572;2023-09-12T06:03:19;22.60;;;14.75;;
20229;SDS011;12195;55.790;37.572;2023-09-12T06:05:53;19.80;;;14.10;;
20229;SDS011;12195;55.790;37.572;2023-09-12T06:08:26;20.70;;;15.23;;
20229;SDS011;12195;55.790;37.572;2023-09-12T06:10:58;21.20;;;14.70;;
20229;SDS011;12195;55.790;37.572;2023-09-12T06:13:31;21.30;;;13.88;;
20229;SDS011;12195;55.790;37.572;2023-09-12T06:16:05;23.00;;;14.25;;
20229;SDS011;12195;55.790;37.572;2023-09-12T06:18:38;21.87;;;14.45;;
20229;SDS011;12195;55.790;37.572;2023-09-12T06:21:12;19.55;;;14.23;;
20229;SDS011;12195;55.790;37.572;2023-09-12T06:23:45;20.62;;;14.60;;
20229;SDS011;12195;55.790;37.572;2023-09-12T06:26:20;29.98;;;14.85;;
20229;SDS011;12195;55.790;37.572;2023-09-12T06:28:52;19.73;;;14.38;;
20229;SDS011;12195;55.790;37.572;2023-09-12T06:31:25;23.52;;;14.45;;
20229;SDS011;12195;55.790;37.572;2023-09-12T06:33:59;20.75;;;14.00;;
20229;SDS011;12195;55.790;37.572;2023-09-12T06:36:32;21.77;;;14.07;;
20229;SDS011;12195;55.790;37.572;2023-09-12T06:39:05;22.27;;;14.85;;
20229;SDS011;12195;55.790;37.572;2023-09-12T06:41:39;20.82;;;15.32;;
20229;SDS011;12195;55.790;37.572;2023-09-12T06:44:12;23.12;;;15.53;;
20229;SDS011;12195;55.790;37.572;2023-09-12T06:46:45;19.25;;;12.23;;
20229;SDS011;12195;55.790;37.572;2023-09-12T06:49:18;19.98;;;14.20;;
20229;SDS011;12195;55.790;37.572;2023-09-12T06:51:51;16.62;;;13.72;;
20229;SDS011;12195;55.790;37.572;2023-09-12T06:54:24;20.00;;;14.60;;
20229;SDS011;12195;55.790;37.572;2023-09-12T06:56:57;25.02;;;14.70;;
20229;SDS011;12195;55.790;37.572;2023-09-12T06:59:30;21.60;;;14.23;;
20229;SDS011;12195;55.790;37.572;2023-09-12T07:02:02;23.87;;;15.60;;
20229;SDS011;12195;55.790;37.572;2023-09-12T07:04:35;18.25;;;14.28;;
20229;SDS011;12195;55.790;37.572;2023-09-12T07:07:09;21.17;;;14.10;;
20229;SDS011;12195;55.790;37.572;2023-09-12T07:09:42;21.87;;;15.28;;
20229;SDS011;12195;55.790;37.572;2023-09-12T07:12:15;24.25;;;16.23;;
20229;SDS011;12195;55.790;37.572;2023-09-12T07:14:49;25.57;;;15.88;;
20229;SDS011;12195;55.790;37.572;2023-09-12T07:17:22;23.62;;;16.17;;
20229;SDS011;12195;55.790;37.572;2023-09-12T07:19:55;29.75;;;17.00;;
20229;SDS011;12195;55.790;37.572;2023-09-12T07:22:31;22.90;;;15.15;;
20229;SDS011;12195;55.790;37.572;2023-09-12T07:25:06;22.50;;;15.48;;
20229;SDS011;12195;55.790;37.572;2023-09-12T07:27:41;21.57;;;14.80;;
20229;SDS011;12195;55.790;37.572;2023-09-12T07:30:14;22.37;;;15.72;;
20229;SDS011;12195;55.790;37.572;2023-09-12T07:32:49;24.32;;;16.20;;
20229;SDS011;12195;55.790;37.572;2023-09-12T07:35:23;21.17;;;14.40;;
20229;SDS011;12195;55.790;37.572;2023-09-12T07:37:56;21.40;;;14.13;;
20229;SDS011;12195;55.790;37.572;2023-09-12T07:40:29;16.95;;;13.28;;
20229;SDS011;12195;55.790;37.572;2023-09-12T07:43:01;21.82;;;14.35;;
20229;SDS011;12195;55.790;37.572;2023-09-12T07:45:36;19.77;;;14.95;;
20229;SDS011;12195;55.790;37.572;2023-09-12T07:48:09;29.12;;;16.17;;
20229;SDS011;12195;55.790;37.572;2023-09-12T07:50:45;23.52;;;16.37;;
20229;SDS011;12195;55.790;37.572;2023-09-12T07:53:20;22.95;;;16.97;;
20229;SDS011;12195;55.790;37.572;2023-09-12T07:55:54;28.73;;;16.12;;
20229;SDS011;12195;55.790;37.572;2023-09-12T07:58:29;25.52;;;17.30;;
20229;SDS011;12195;55.790;37.572;2023-09-12T08:01:08;25.90;;;15.78;;
20229;SDS011;12195;55.790;37.572;2023-09-12T08:03:41;24.50;;;16.65;;
20229;SDS011;12195;55.790;37.572;2023-09-12T08:08:49;20.97;;;14.55;;
20229;SDS011;12195;55.790;37.572;2023-09-12T08:11:22;27.77;;;16.27;;
20229;SDS011;12195;55.790;37.572;2023-09-12T08:13:57;26.40;;;17.02;;
20229;SDS011;12195;55.790;37.572;2023-09-12T08:16:30;23.65;;;15.20;;
20229;SDS011;12195;55.790;37.572;2023-09-12T08:19:02;23.90;;;14.73;;
20229;SDS011;12195;55.790;37.572;2023-09-12T08:21:35;30.12;;;15.98;;
20229;SDS011;12195;55.790;37.572;2023-09-12T08:24:10;24.92;;;15.58;;
20229;SDS011;12195;55.790;37.572;2023-09-12T08:26:44;23.45;;;15.78;;
20229;SDS011;12195;55.790;37.572;2023-09-12T08:29:20;24.95;;;15.05;;
20229;SDS011;12195;55.790;37.572;2023-09-12T08:31:53;22.70;;;15.00;;
20229;SDS011;12195;55.790;37.572;2023-09-12T08:36:59;22.50;;;12.93;;
20229;SDS011;12195;55.790;37.572;2023-09-12T08:39:42;20.50;;;12.82;;
20229;SDS011;12195;55.790;37.572;2023-09-12T08:42:15;20.52;;;12.98;;
20229;SDS011;12195;55.790;37.572;2023-09-12T08:44:48;16.20;;;11.18;;
20229;SDS011;12195;55.790;37.572;2023-09-12T08:47:24;18.17;;;11.10;;
20229;SDS011;12195;55.790;37.572;2023-09-12T08:49:58;16.23;;;9.75;;
20229;SDS011;12195;55.790;37.572;2023-09-12T08:52:31;19.48;;;10.40;;
20229;SDS011;12195;55.790;37.572;2023-09-12T08:55:05;18.98;;;10.05;;
20229;SDS011;12195;55.790;37.572;2023-09-12T08:57:40;19.37;;;9.58;;
20229;SDS011;12195;55.790;37.572;2023-09-12T09:00:15;16.15;;;9.40;;
20229;SDS011;12195;55.790;37.572;2023-09-12T09:03:04;19.23;;;9.10;;
20229;SDS011;12195;55.790;37.572;2023-09-12T09:05:41;24.00;;;9.50;;
20229;SDS011;12195;55.790;37.572;2023-09-12T09:08:15;17.62;;;9.20;;
20229;SDS011;12195;55.790;37.572;2023-09-12T09:10:54;14.93;;;9.53;;
20229;SDS011;12195;55.790;37.572;2023-09-12T09:13:29;23.02;;;10.30;;
20229;SDS011;12195;55.790;37.572;2023-09-12T09:16:11;19.42;;;8.75;;
20229;SDS011;12195;55.790;37.572;2023-09-12T09:18:50;13.20;;;8.18;;
20229;SDS011;12195;55.790;37.572;2023-09-12T09:24:04;14.03;;;8.43;;
20229;SDS011;12195;55.790;37.572;2023-09-12T09:26:42;11.90;;;7.42;;
20229;SDS011;12195;55.790;37.572;2023-09-12T09:29:19;12.47;;;7.08;;
20229;SDS011;12195;55.790;37.572;2023-09-12T09:31:52;12.47;;;7.30;;
20229;SDS011;12195;55.790;37.572;2023-09-12T09:34:25;15.45;;;8.60;;
20229;SDS011;12195;55.790;37.572;2023-09-12T09:37:00;14.63;;;8.13;;
20229;SDS011;12195;55.790;37.572;2023-09-12T09:42:09;16.15;;;8.35;;
20229;SDS011;12195;55.790;37.572;2023-09-12T09:44:42;24.02;;;10.50;;
20229;SDS011;12195;55.790;37.572;2023-09-12T09:47:19;14.30;;;9.35;;
20229;SDS011;12195;55.790;37.572;2023-09-12T09:49:51;16.67;;;9.60;;
20229;SDS011;12195;55.790;37.572;2023-09-12T09:52:27;15.38;;;9.05;;
20229;SDS011;12195;55.790;37.572;2023-09-12T09:55:01;17.30;;;9.98;;
20229;SDS011;12195;55.790;37.572;2023-09-12T09:57:39;19.60;;;9.80;;
20229;SDS011;12195;55.790;37.572;2023-09-12T10:00:13;15.58;;;9.13;;
20229;SDS011;12195;55.790;37.572;2023-09-12T10:02:49;14.63;;;8.60;;
20229;SDS011;12195;55.790;37.572;2023-09-12T10:05:23;15.30;;;8.80;;
20229;SDS011;12195;55.790;37.572;2023-09-12T10:07:58;10.60;;;7.03;;
20229;SDS011;12195;55.790;37.572;2023-09-12T10:10:33;19.23;;;9.00;;
20229;SDS011;12195;55.790;37.572;2023-09-12T10:13:07;16.20;;;8.93;;
20229;SDS011;12195;55.790;37.572;2023-09-12T10:15:42;18.82;;;8.83;;
20229;SDS011;12195;55.790;37.572;2023-09-12T10:18:19;18.48;;;10.58;;
20229;SDS011;12195;55.790;37.572;2023-09-12T10:20:55;18.92;;;8.53;;
20229;SDS011;12195;55.790;37.572;2023-09-12T10:23:49;12.88;;;7.85;;
20229;SDS011;12195;55.790;37.572;2023-09-12T10:26:20;12.73;;;8.40;;
20229;SDS011;12195;55.790;37.572;2023-09-12T10:28:54;18.87;;;9.83;;
20229;SDS011;12195;55.790;37.572;2023-09-12T10:31:26;10.80;;;7.17;;
20229;SDS011;12195;55.790;37.572;2023-09-12T10:34:00;10.25;;;7.28;;
20229;SDS011;12195;55.790;37.572;2023-09-12T10:39:11;12.70;;;6.45;;
20229;SDS011;12195;55.790;37.572;2023-09-12T10:41:48;11.70;;;6.22;;
20229;SDS011;12195;55.790;37.572;2023-09-12T10:44:23;10.18;;;5.62;;
20229;SDS011;12195;55.790;37.572;2023-09-12T10:46:57;6.05;;;4.58;;
20229;SDS011;12195;55.790;37.572;2023-09-12T10:49:30;9.10;;;4.90;;
20229;SDS011;12195;55.790;37.572;2023-09-12T10:52:03;7.95;;;5.47;;
20229;SDS011;12195;55.790;37.572;2023-09-12T10:54:38;7.50;;;4.83;;
20229;SDS011;12195;55.790;37.572;2023-09-12T10:57:11;10.27;;;5.60;;
20229;SDS011;12195;55.790;37.572;2023-09-12T11:02:38;9.28;;;5.25;;
20229;SDS011;12195;55.790;37.572;2023-09-12T11:08:04;9.75;;;4.72;;
20229;SDS011;12195;55.790;37.572;2023-09-12T11:10:37;15.13;;;6.50;;
20229;SDS011;12195;55.790;37.572;2023-09-12T11:13:17;8.05;;;5.45;;
20229;SDS011;12195;55.790;37.572;2023-09-12T11:21:53;7.28;;;4.70;;
20229;SDS011;12195;55.790;37.572;2023-09-12T11:24:26;7.42;;;4.10;;
20229;SDS011;12195;55.790;37.572;2023-09-12T11:27:01;6.70;;;4.15;;
20229;SDS011;12195;55.790;37.572;2023-09-12T11:29:39;10.38;;;4.80;;
20229;SDS011;12195;55.790;37.572;2023-09-12T11:32:24;11.30;;;5.67;;
20229;SDS011;12195;55.790;37.572;2023-09-12T11:34:59;8.70;;;5.55;;
20229;SDS011;12195;55.790;37.572;2023-09-12T11:37:34;10.95;;;5.80;;
20229;SDS011;12195;55.790;37.572;2023-09-12T11:42:46;11.12;;;5.72;;
20229;SDS011;12195;55.790;37.572;2023-09-12T11:45:21;13.55;;;6.33;;
20229;SDS011;12195;55.790;37.572;2023-09-12T11:47:54;8.20;;;5.87;;
20229;SDS011;12195;55.790;37.572;2023-09-12T11:53:11;10.10;;;5.22;;
20229;SDS011;12195;55.790;37.572;2023-09-12T11:55:45;9.33;;;5.60;;
20229;SDS011;12195;55.790;37.572;2023-09-12T11:58:20;11.18;;;5.55;;
20229;SDS011;12195;55.790;37.572;2023-09-12T12:00:55;10.65;;;6.03;;
20229;SDS011;12195;55.790;37.572;2023-09-12T12:03:29;6.20;;;4.53;;
20229;SDS011;12195;55.790;37.572;2023-09-12T12:06:02;8.00;;;4.53;;
20229;SDS011;12195;55.790;37.572;2023-09-12T12:08:37;9.40;;;5.58;;
20229;SDS011;12195;55.790;37.572;2023-09-12T12:11:10;7.78;;;5.03;;
20229;SDS011;12195;55.790;37.572;2023-09-12T12:13:43;10.13;;;5.70;;
20229;SDS011;12195;55.790;37.572;2023-09-12T12:16:17;9.73;;;5.23;;
20229;SDS011;12195;55.790;37.572;2023-09-12T12:18:50;9.90;;;4.87;;
20229;SDS011;12195;55.790;37.572;2023-09-12T12:21:28;7.90;;;4.80;;
20229;SDS011;12195;55.790;37.572;2023-09-12T12:24:04;6.78;;;4.70;;
20229;SDS011;12195;55.790;37.572;2023-09-12T12:26:38;10.00;;;5.40;;
20229;SDS011;12195;55.790;37.572;2023-09-12T12:29:17;10.95;;;5.22;;
20229;SDS011;12195;55.790;37.572;2023-09-12T12:31:49;7.67;;;4.90;;
20229;SDS011;12195;55.790;37.572;2023-09-12T12:34:23;7.70;;;5.22;;
20229;SDS011;12195;55.790;37.572;2023-09-12T12:39:31;10.72;;;4.65;;
20229;SDS011;12195;55.790;37.572;2023-09-12T12:42:04;7.15;;;4.78;;
20229;SDS011;12195;55.790;37.572;2023-09-12T12:44:39;6.28;;;4.17;;
20229;SDS011;12195;55.790;37.572;2023-09-12T12:47:11;7.10;;;4.33;;
20229;SDS011;12195;55.790;37.572;2023-09-12T12:49:45;9.88;;;4.50;;
20229;SDS011;12195;55.790;37.572;2023-09-12T12:52:23;18.92;;;6.35;;
20229;SDS011;12195;55.790;37.572;2023-09-12T12:55:04;10.30;;;3.92;;
20229;SDS011;12195;55.790;37.572;2023-09-12T12:57:37;9.33;;;4.35;;
20229;SDS011;12195;55.790;37.572;2023-09-12T13:00:11;5.17;;;4.05;;
20229;SDS011;12195;55.790;37.572;2023-09-12T13:02:46;8.93;;;4.70;;
20229;SDS011;12195;55.790;37.572;2023-09-12T13:05:32;5.45;;;3.67;;
20229;SDS011;12195;55.790;37.572;2023-09-12T13:07:55;7.97;;;4.15;;
20229;SDS011;12195;55.790;37.572;2023-09-12T13:13:01;9.10;;;3.90;;
20229;SDS011;12195;55.790;37.572;2023-09-12T13:15:34;7.77;;;4.30;;
20229;SDS011;12195;55.790;37.572;2023-09-12T13:18:07;8.90;;;4.62;;
20229;SDS011;12195;55.790;37.572;2023-09-12T13:20:40;8.73;;;4.55;;
20229;SDS011;12195;55.790;37.572;2023-09-12T13:23:13;6.35;;;4.05;;
20229;SDS011;12195;55.790;37.572;2023-09-12T13:25:45;7.45;;;4.30;;
20229;SDS011;12195;55.790;37.572;2023-09-12T13:28:18;7.40;;;4.37;;
20229;SDS011;12195;55.790;37.572;2023-09-12T13:30:56;6.45;;;3.85;;
20229;SDS011;12195;55.790;37.572;2023-09-12T13:35:59;8.23;;;4.85;;
20229;SDS011;12195;55.790;37.572;2023-09-12T13:38:30;6.65;;;4.08;;
20229;SDS011;12195;55.790;37.572;2023-09-12T13:41:07;7.90;;;4.42;;
20229;SDS011;12195;55.790;37.572;2023-09-12T13:43:40;6.72;;;4.03;;
20229;SDS011;12195;55.790;37.572;2023-09-12T13:46:18;7.50;;;4.53;;
20229;SDS011;12195;55.790;37.572;2023-09-12T13:48:53;6.30;;;4.22;;
20229;SDS011;12195;55.790;37.572;2023-09-12T13:51:31;9.63;;;3.95;;
20229;SDS011;12195;55.790;37.572;2023-09-12T13:54:05;8.25;;;4.45;;
20229;SDS011;12195;55.790;37.572;2023-09-12T13:56:39;6.40;;;3.70;;
20229;SDS011;12195;55.790;37.572;2023-09-12T13:59:15;7.62;;;3.60;;
20229;SDS011;12195;55.790;37.572;2023-09-12T14:01:48;6.15;;;3.80;;
20229;SDS011;12195;55.790;37.572;2023-09-12T14:04:22;15.05;;;5.85;;
20229;SDS011;12195;55.790;37.572;2023-09-12T14:06:55;7.10;;;3.80;;
20229;SDS011;12195;55.790;37.572;2023-09-12T14:09:28;7.55;;;4.05;;
20229;SDS011;12195;55.790;37.572;2023-09-12T14:12:01;5.60;;;4.05;;
20229;SDS011;12195;55.790;37.572;2023-09-12T14:14:36;7.20;;;3.58;;
20229;SDS011;12195;55.790;37.572;2023-09-12T14:17:09;7.25;;;3.52;;
20229;SDS011;12195;55.790;37.572;2023-09-12T14:19:43;6.42;;;4.12;;
20229;SDS011;12195;55.790;37.572;2023-09-12T14:22:17;8.08;;;3.65;;
20229;SDS011;12195;55.790;37.572;2023-09-12T14:24:54;5.83;;;3.33;;
20229;SDS011;12195;55.790;37.572;2023-09-12T14:27:30;7.83;;;4.53;;
20229;SDS011;12195;55.790;37.572;2023-09-12T14:30:04;8.60;;;5.22;;
20229;SDS011;12195;55.790;37.572;2023-09-12T14:32:38;8.53;;;4.72;;
20229;SDS011;12195;55.790;37.572;2023-09-12T14:35:11;10.28;;;4.20;;
20229;SDS011;12195;55.790;37.572;2023-09-12T14:37:45;9.20;;;4.35;;
20229;SDS011;12195;55.790;37.572;2023-09-12T14:42:52;9.15;;;3.67;;
20229;SDS011;12195;55.790;37.572;2023-09-12T14:45:26;7.92;;;4.28;;
20229;SDS011;12195;55.790;37.572;2023-09-12T14:48:00;9.65;;;4.40;;
20229;SDS011;12195;55.790;37.572;2023-09-12T14:50:33;11.05;;;4.70;;
20229;SDS011;12195;55.790;37.572;2023-09-12T14:53:07;12.70;;;5.00;;
20229;SDS011;12195;55.790;37.572;2023-09-12T14:55:42;8.38;;;3.67;;
20229;SDS011;12195;55.790;37.572;2023-09-12T14:58:16;6.90;;;4.03;;
20229;SDS011;12195;55.790;37.572;2023-09-12T15:00:49;9.93;;;4.65;;
20229;SDS011;12195;55.790;37.572;2023-09-12T15:03:22;10.58;;;4.42;;
20229;SDS011;12195;55.790;37.572;2023-09-12T15:05:55;7.75;;;4.03;;
20229;SDS011;12195;55.790;37.572;2023-09-12T15:08:28;11.03;;;4.42;;
20229;SDS011;12195;55.790;37.572;2023-09-12T15:11:03;7.25;;;4.35;;
20229;SDS011;12195;55.790;37.572;2023-09-12T15:13:36;6.65;;;3.90;;
20229;SDS011;12195;55.790;37.572;2023-09-12T15:16:11;6.67;;;4.05;;
20229;SDS011;12195;55.790;37.572;2023-09-12T15:18:45;7.27;;;4.03;;
20229;SDS011;12195;55.790;37.572;2023-09-12T15:21:21;6.35;;;3.70;;
20229;SDS011;12195;55.790;37.572;2023-09-12T15:23:53;5.20;;;3.60;;
20229;SDS011;12195;55.790;37.572;2023-09-12T15:29:09;16.85;;;5.95;;
20229;SDS011;12195;55.790;37.572;2023-09-12T15:31:42;10.60;;;4.05;;
20229;SDS011;12195;55.790;37.572;2023-09-12T15:34:15;5.08;;;3.80;;
20229;SDS011;12195;55.790;37.572;2023-09-12T15:36:48;7.17;;;4.47;;
20229;SDS011;12195;55.790;37.572;2023-09-12T15:39:21;7.30;;;4.53;;
20229;SDS011;12195;55.790;37.572;2023-09-12T15:41:53;8.65;;;4.47;;
20229;SDS011;12195;55.790;37.572;2023-09-12T15:44:26;8.65;;;5.10;;
20229;SDS011;12195;55.790;37.572;2023-09-12T15:46:59;9.60;;;4.80;;
20229;SDS011;12195;55.790;37.572;2023-09-12T15:49:34;7.75;;;4.45;;
20229;SDS011;12195;55.790;37.572;2023-09-12T15:52:06;5.95;;;4.42;;
20229;SDS011;12195;55.790;37.572;2023-09-12T15:54:39;12.98;;;5.47;;